sensor_id;sensor_type;location;lat;lon;timestamp;P1;durP1;ratioP1;P2;durP2;ratioP2
6549;SDS011;15142;48.888;9.134;2023-06-22T00:01:05;9.70;;;6.67;;
6549;SDS011;15142;48.888;9.134;2023-06-22T00:03:33;10.63;;;7.50;;
6549;SDS011;15142;48.888;9.134;2023-06-22T00:06:02;11.33;;;6.77;;
6549;SDS011;15142;48.888;9.134;2023-06-22T00:08:30;9.30;;;6.07;;
6549;SDS011;15142;48.888;9.134;2023-06-22T00:11:01;11.90;;;6.60;;
6549;SDS011;15142;48.888;9.134;2023-06-22T00:13:30;12.90;;;6.17;;
6549;SDS011;15142;48.888;9.134;2023-06-22T00:15:59;9.03;;;5.70;;
6549;SDS011;15142;48.888;9.134;2023-06-22T00:18:27;8.23;;;6.30;;
6549;SDS011;15142;48.888;9.134;2023-06-22T00:20:57;9.93;;;6.37;;
6549;SDS011;15142;48.888;9.134;2023-06-22T00:23:25;8.10;;;6.07;;
6549;SDS011;15142;48.888;9.134;2023-06-22T00:26:02;10.27;;;5.43;;
6549;SDS011;15142;48.888;9.134;2023-06-22T00:28:30;6.17;;;5.60;;
6549;SDS011;15142;48.888;9.134;2023-06-22T00:31:01;8.80;;;6.47;;
6549;SDS011;15142;48.888;9.134;2023-06-22T00:33:29;8.70;;;6.47;;
6549;SDS011;15142;48.888;9.134;2023-06-22T00:35:58;8.37;;;6.50;;
6549;SDS011;15142;48.888;9.134;2023-06-22T00:38:30;27.33;;;8.37;;
6549;SDS011;15142;48.888;9.134;2023-06-22T00:40:58;9.40;;;7.17;;
6549;SDS011;15142;48.888;9.134;2023-06-22T00:43:30;11.67;;;7.10;;
6549;SDS011;15142;48.888;9.134;2023-06-22T00:45:58;10.17;;;8.07;;
6549;SDS011;15142;48.888;9.134;2023-06-22T00:48:27;11.27;;;7.03;;
6549;SDS011;15142;48.888;9.134;2023-06-22T00:50:56;10.63;;;8.30;;
6549;SDS011;15142;48.888;9.134;2023-06-22T00:53:24;11.70;;;7.40;;
6549;SDS011;15142;48.888;9.134;2023-06-22T00:55:53;11.17;;;8.10;;
6549;SDS011;15142;48.888;9.134;2023-06-22T00:58:25;15.33;;;7.80;;
6549;SDS011;15142;48.888;9.134;2023-06-22T01:00:56;10.10;;;8.20;;
6549;SDS011;15142;48.888;9.134;2023-06-22T01:03:27;10.40;;;7.53;;
6549;SDS011;15142;48.888;9.134;2023-06-22T01:05:56;12.90;;;8.37;;
6549;SDS011;15142;48.888;9.134;2023-06-22T01:08:36;13.27;;;8.70;;
6549;SDS011;15142;48.888;9.134;2023-06-22T01:11:16;9.23;;;7.30;;
6549;SDS011;15142;48.888;9.134;2023-06-22T01:13:50;13.27;;;9.00;;
6549;SDS011;15142;48.888;9.134;2023-06-22T01:16:29;10.83;;;7.77;;
6549;SDS011;15142;48.888;9.134;2023-06-22T01:19:00;11.90;;;8.73;;
6549;SDS011;15142;48.888;9.134;2023-06-22T01:21:36;13.30;;;7.87;;
6549;SDS011;15142;48.888;9.134;2023-06-22T01:24:10;13.07;;;7.93;;
6549;SDS011;15142;48.888;9.134;2023-06-22T01:26:47;11.20;;;7.67;;
6549;SDS011;15142;48.888;9.134;2023-06-22T01:29:27;17.13;;;8.30;;
6549;SDS011;15142;48.888;9.134;2023-06-22T01:31:58;10.60;;;8.47;;
6549;SDS011;15142;48.888;9.134;2023-06-22T01:34:28;19.27;;;8.63;;
6549;SDS011;15142;48.888;9.134;2023-06-22T01:36:59;13.63;;;7.77;;
6549;SDS011;15142;48.888;9.134;2023-06-22T01:39:29;15.23;;;7.53;;
6549;SDS011;15142;48.888;9.134;2023-06-22T01:41:58;7.87;;;6.77;;
6549;SDS011;15142;48.888;9.134;2023-06-22T01:44:30;8.90;;;6.60;;
6549;SDS011;15142;48.888;9.134;2023-06-22T01:46:59;9.20;;;6.90;;
6549;SDS011;15142;48.888;9.134;2023-06-22T01:49:28;10.40;;;7.07;;
6549;SDS011;15142;48.888;9.134;2023-06-22T01:51:57;13.97;;;8.17;;
6549;SDS011;15142;48.888;9.134;2023-06-22T01:54:27;8.93;;;6.23;;
6549;SDS011;15142;48.888;9.134;2023-06-22T01:56:56;12.17;;;7.33;;
6549;SDS011;15142;48.888;9.134;2023-06-22T01:59:26;8.30;;;6.30;;
6549;SDS011;15142;48.888;9.134;2023-06-22T02:02:04;9.27;;;7.53;;
6549;SDS011;15142;48.888;9.134;2023-06-22T02:04:37;10.20;;;8.27;;
6549;SDS011;15142;48.888;9.134;2023-06-22T02:07:12;9.77;;;7.30;;
6549;SDS011;15142;48.888;9.134;2023-06-22T02:09:43;12.93;;;8.57;;
6549;SDS011;15142;48.888;9.134;2023-06-22T02:12:13;11.33;;;7.40;;
6549;SDS011;15142;48.888;9.134;2023-06-22T02:14:49;8.07;;;6.50;;
6549;SDS011;15142;48.888;9.134;2023-06-22T02:17:18;9.00;;;6.57;;
6549;SDS011;15142;48.888;9.134;2023-06-22T02:19:48;11.07;;;6.93;;
6549;SDS011;15142;48.888;9.134;2023-06-22T02:22:16;8.17;;;7.03;;
6549;SDS011;15142;48.888;9.134;2023-06-22T02:24:45;8.10;;;7.20;;
6549;SDS011;15142;48.888;9.134;2023-06-22T02:27:13;10.53;;;6.60;;
6549;SDS011;15142;48.888;9.134;2023-06-22T02:29:42;14.90;;;7.90;;
6549;SDS011;15142;48.888;9.134;2023-06-22T02:32:13;10.00;;;6.70;;
6549;SDS011;15142;48.888;9.134;2023-06-22T02:34:45;11.33;;;6.90;;
6549;SDS011;15142;48.888;9.134;2023-06-22T02:37:15;15.47;;;7.10;;
6549;SDS011;15142;48.888;9.134;2023-06-22T02:39:43;9.83;;;6.90;;
6549;SDS011;15142;48.888;9.134;2023-06-22T02:42:12;11.20;;;7.40;;
6549;SDS011;15142;48.888;9.134;2023-06-22T02:44:45;14.23;;;7.17;;
6549;SDS011;15142;48.888;9.134;2023-06-22T02:47:16;7.77;;;6.30;;
6549;SDS011;15142;48.888;9.134;2023-06-22T02:49:45;9.00;;;7.20;;
6549;SDS011;15142;48.888;9.134;2023-06-22T02:52:15;12.00;;;7.47;;
6549;SDS011;15142;48.888;9.134;2023-06-22T02:54:44;12.20;;;8.50;;
6549;SDS011;15142;48.888;9.134;2023-06-22T02:57:14;10.77;;;6.87;;
6549;SDS011;15142;48.888;9.134;2023-06-22T02:59:43;9.83;;;6.80;;
6549;SDS011;15142;48.888;9.134;2023-06-22T03:02:12;10.90;;;7.53;;
6549;SDS011;15142;48.888;9.134;2023-06-22T03:04:44;11.93;;;7.33;;
6549;SDS011;15142;48.888;9.134;2023-06-22T03:07:14;10.00;;;6.87;;
6549;SDS011;15142;48.888;9.134;2023-06-22T03:09:43;10.40;;;7.27;;
6549;SDS011;15142;48.888;9.134;2023-06-22T03:12:12;9.60;;;6.90;;
6549;SDS011;15142;48.888;9.134;2023-06-22T03:14:59;10.20;;;6.33;;
6549;SDS011;15142;48.888;9.134;2023-06-22T03:17:27;10.93;;;6.07;;
6549;SDS011;15142;48.888;9.134;2023-06-22T03:19:58;14.43;;;8.10;;
6549;SDS011;15142;48.888;9.134;2023-06-22T03:22:27;9.13;;;6.77;;
6549;SDS011;15142;48.888;9.134;2023-06-22T03:24:55;11.60;;;7.70;;
6549;SDS011;15142;48.888;9.134;2023-06-22T03:27:25;10.90;;;6.73;;
6549;SDS011;15142;48.888;9.134;2023-06-22T03:29:57;8.30;;;6.17;;
6549;SDS011;15142;48.888;9.134;2023-06-22T03:32:26;11.90;;;6.93;;
6549;SDS011;15142;48.888;9.134;2023-06-22T03:34:57;7.40;;;6.57;;
6549;SDS011;15142;48.888;9.134;2023-06-22T03:37:28;9.30;;;6.83;;
6549;SDS011;15142;48.888;9.134;2023-06-22T03:39:57;11.43;;;7.47;;
6549;SDS011;15142;48.888;9.134;2023-06-22T03:42:27;14.00;;;7.33;;
6549;SDS011;15142;48.888;9.134;2023-06-22T03:44:56;10.30;;;7.90;;
6549;SDS011;15142;48.888;9.134;2023-06-22T03:47:26;17.03;;;8.10;;
6549;SDS011;15142;48.888;9.134;2023-06-22T03:50:00;11.00;;;8.20;;
6549;SDS011;15142;48.888;9.134;2023-06-22T03:52:28;11.23;;;7.27;;
6549;SDS011;15142;48.888;9.134;2023-06-22T03:54:57;10.77;;;7.73;;
6549;SDS011;15142;48.888;9.134;2023-06-22T03:57:26;10.00;;;7.40;;
6549;SDS011;15142;48.888;9.134;2023-06-22T03:59:55;16.27;;;7.70;;
6549;SDS011;15142;48.888;9.134;2023-06-22T04:02:25;11.30;;;7.80;;
6549;SDS011;15142;48.888;9.134;2023-06-22T04:04:53;14.03;;;8.10;;
6549;SDS011;15142;48.888;9.134;2023-06-22T04:07:24;12.50;;;7.23;;
6549;SDS011;15142;48.888;9.134;2023-06-22T04:09:53;13.90;;;7.20;;
6549;SDS011;15142;48.888;9.134;2023-06-22T04:12:21;12.07;;;7.23;;
6549;SDS011;15142;48.888;9.134;2023-06-22T04:14:50;10.40;;;7.60;;
6549;SDS011;15142;48.888;9.134;2023-06-22T04:17:19;11.53;;;7.40;;
6549;SDS011;15142;48.888;9.134;2023-06-22T04:19:50;12.27;;;8.47;;
6549;SDS011;15142;48.888;9.134;2023-06-22T04:22:18;8.70;;;7.13;;
6549;SDS011;15142;48.888;9.134;2023-06-22T04:24:49;17.43;;;8.87;;
6549;SDS011;15142;48.888;9.134;2023-06-22T04:27:18;14.00;;;10.53;;
6549;SDS011;15142;48.888;9.134;2023-06-22T04:29:48;11.33;;;7.70;;
6549;SDS011;15142;48.888;9.134;2023-06-22T04:32:17;9.47;;;8.00;;
6549;SDS011;15142;48.888;9.134;2023-06-22T04:34:45;11.80;;;8.77;;
6549;SDS011;15142;48.888;9.134;2023-06-22T04:37:14;13.83;;;9.47;;
6549;SDS011;15142;48.888;9.134;2023-06-22T04:39:43;11.90;;;7.63;;
6549;SDS011;15142;48.888;9.134;2023-06-22T04:42:14;10.87;;;8.10;;
6549;SDS011;15142;48.888;9.134;2023-06-22T04:44:43;9.70;;;7.00;;
6549;SDS011;15142;48.888;9.134;2023-06-22T04:47:11;10.90;;;7.93;;
6549;SDS011;15142;48.888;9.134;2023-06-22T04:49:40;9.70;;;7.00;;
6549;SDS011;15142;48.888;9.134;2023-06-22T04:52:09;12.20;;;7.90;;
6549;SDS011;15142;48.888;9.134;2023-06-22T04:54:39;18.00;;;8.20;;
6549;SDS011;15142;48.888;9.134;2023-06-22T04:57:15;9.60;;;7.77;;
6549;SDS011;15142;48.888;9.134;2023-06-22T04:59:44;12.70;;;8.60;;
6549;SDS011;15142;48.888;9.134;2023-06-22T05:02:13;12.10;;;8.20;;
6549;SDS011;15142;48.888;9.134;2023-06-22T05:04:41;15.97;;;9.77;;
6549;SDS011;15142;48.888;9.134;2023-06-22T05:07:10;19.43;;;7.37;;
6549;SDS011;15142;48.888;9.134;2023-06-22T05:09:38;16.73;;;7.73;;
6549;SDS011;15142;48.888;9.134;2023-06-22T05:12:07;11.47;;;8.53;;
6549;SDS011;15142;48.888;9.134;2023-06-22T05:14:40;13.47;;;7.93;;
6549;SDS011;15142;48.888;9.134;2023-06-22T05:17:08;19.27;;;8.97;;
6549;SDS011;15142;48.888;9.134;2023-06-22T05:19:38;12.33;;;8.60;;
6549;SDS011;15142;48.888;9.134;2023-06-22T05:22:13;12.57;;;7.87;;
6549;SDS011;15142;48.888;9.134;2023-06-22T05:24:42;17.23;;;8.00;;
6549;SDS011;15142;48.888;9.134;2023-06-22T05:27:11;12.83;;;9.00;;
6549;SDS011;15142;48.888;9.134;2023-06-22T05:29:43;14.47;;;8.73;;
6549;SDS011;15142;48.888;9.134;2023-06-22T05:32:11;23.20;;;8.90;;
6549;SDS011;15142;48.888;9.134;2023-06-22T05:34:39;12.90;;;8.50;;
6549;SDS011;15142;48.888;9.134;2023-06-22T05:37:08;16.23;;;7.87;;
6549;SDS011;15142;48.888;9.134;2023-06-22T05:39:38;13.20;;;8.03;;
6549;SDS011;15142;48.888;9.134;2023-06-22T05:42:07;13.57;;;8.63;;
6549;SDS011;15142;48.888;9.134;2023-06-22T05:44:35;8.80;;;6.53;;
6549;SDS011;15142;48.888;9.134;2023-06-22T05:47:08;11.23;;;8.17;;
6549;SDS011;15142;48.888;9.134;2023-06-22T05:49:37;11.30;;;7.37;;
6549;SDS011;15142;48.888;9.134;2023-06-22T05:52:06;16.37;;;8.00;;
6549;SDS011;15142;48.888;9.134;2023-06-22T05:54:35;15.00;;;7.90;;
6549;SDS011;15142;48.888;9.134;2023-06-22T05:57:04;10.30;;;7.17;;
6549;SDS011;15142;48.888;9.134;2023-06-22T05:59:33;11.90;;;7.00;;
6549;SDS011;15142;48.888;9.134;2023-06-22T06:02:02;11.63;;;7.00;;
6549;SDS011;15142;48.888;9.134;2023-06-22T06:04:33;12.23;;;7.60;;
6549;SDS011;15142;48.888;9.134;2023-06-22T06:07:02;12.07;;;7.23;;
6549;SDS011;15142;48.888;9.134;2023-06-22T06:09:30;12.80;;;7.53;;
6549;SDS011;15142;48.888;9.134;2023-06-22T06:11:59;19.57;;;8.87;;
6549;SDS011;15142;48.888;9.134;2023-06-22T06:14:28;8.87;;;6.43;;
6549;SDS011;15142;48.888;9.134;2023-06-22T06:16:57;10.53;;;6.97;;
6549;SDS011;15142;48.888;9.134;2023-06-22T06:19:25;12.23;;;8.40;;
6549;SDS011;15142;48.888;9.134;2023-06-22T06:21:56;12.40;;;7.97;;
6549;SDS011;15142;48.888;9.134;2023-06-22T06:24:25;11.90;;;7.07;;
6549;SDS011;15142;48.888;9.134;2023-06-22T06:26:54;10.13;;;6.73;;
6549;SDS011;15142;48.888;9.134;2023-06-22T06:29:23;11.67;;;6.30;;
6549;SDS011;15142;48.888;9.134;2023-06-22T06:31:51;10.40;;;6.40;;
6549;SDS011;15142;48.888;9.134;2023-06-22T06:34:20;7.90;;;5.90;;
6549;SDS011;15142;48.888;9.134;2023-06-22T06:36:48;13.47;;;7.00;;
6549;SDS011;15142;48.888;9.134;2023-06-22T06:39:20;12.40;;;7.13;;
6549;SDS011;15142;48.888;9.134;2023-06-22T06:41:49;15.33;;;8.27;;
6549;SDS011;15142;48.888;9.134;2023-06-22T06:44:19;11.37;;;7.80;;
6549;SDS011;15142;48.888;9.134;2023-06-22T06:46:47;8.80;;;5.40;;
6549;SDS011;15142;48.888;9.134;2023-06-22T06:49:15;8.80;;;6.50;;
6549;SDS011;15142;48.888;9.134;2023-06-22T06:51:44;10.80;;;5.77;;
6549;SDS011;15142;48.888;9.134;2023-06-22T06:54:13;6.73;;;5.80;;
6549;SDS011;15142;48.888;9.134;2023-06-22T06:56:44;8.50;;;6.07;;
6549;SDS011;15142;48.888;9.134;2023-06-22T06:59:13;13.80;;;6.30;;
6549;SDS011;15142;48.888;9.134;2023-06-22T07:01:42;10.13;;;6.10;;
6549;SDS011;15142;48.888;9.134;2023-06-22T07:04:11;7.90;;;5.70;;
6549;SDS011;15142;48.888;9.134;2023-06-22T07:06:39;7.80;;;5.30;;
6549;SDS011;15142;48.888;9.134;2023-06-22T07:09:08;7.63;;;4.90;;
6549;SDS011;15142;48.888;9.134;2023-06-22T07:11:36;8.30;;;5.70;;
6549;SDS011;15142;48.888;9.134;2023-06-22T07:14:07;7.80;;;6.10;;
6549;SDS011;15142;48.888;9.134;2023-06-22T07:16:36;7.80;;;5.40;;
6549;SDS011;15142;48.888;9.134;2023-06-22T07:19:05;9.80;;;5.40;;
6549;SDS011;15142;48.888;9.134;2023-06-22T07:21:33;8.80;;;6.27;;
6549;SDS011;15142;48.888;9.134;2023-06-22T07:24:02;10.70;;;5.00;;
6549;SDS011;15142;48.888;9.134;2023-06-22T07:26:31;7.43;;;5.40;;
6549;SDS011;15142;48.888;9.134;2023-06-22T07:29:00;8.30;;;5.10;;
6549;SDS011;15142;48.888;9.134;2023-06-22T07:31:32;10.43;;;5.03;;
6549;SDS011;15142;48.888;9.134;2023-06-22T07:34:00;6.80;;;4.93;;
6549;SDS011;15142;48.888;9.134;2023-06-22T07:36:29;11.50;;;4.60;;
6549;SDS011;15142;48.888;9.134;2023-06-22T07:38:58;15.80;;;5.40;;
6549;SDS011;15142;48.888;9.134;2023-06-22T07:41:27;14.30;;;4.93;;
6549;SDS011;15142;48.888;9.134;2023-06-22T07:43:55;12.47;;;5.53;;
6549;SDS011;15142;48.888;9.134;2023-06-22T07:46:24;6.27;;;4.47;;
6549;SDS011;15142;48.888;9.134;2023-06-22T07:48:58;6.90;;;4.50;;
6549;SDS011;15142;48.888;9.134;2023-06-22T07:51:26;14.00;;;5.93;;
6549;SDS011;15142;48.888;9.134;2023-06-22T07:53:55;10.30;;;4.40;;
6549;SDS011;15142;48.888;9.134;2023-06-22T07:56:24;11.10;;;5.57;;
6549;SDS011;15142;48.888;9.134;2023-06-22T07:58:52;6.87;;;4.33;;
6549;SDS011;15142;48.888;9.134;2023-06-22T08:01:23;4.47;;;3.73;;
6549;SDS011;15142;48.888;9.134;2023-06-22T08:03:52;8.13;;;4.40;;
6549;SDS011;15142;48.888;9.134;2023-06-22T08:06:23;6.30;;;4.60;;
6549;SDS011;15142;48.888;9.134;2023-06-22T08:08:52;5.17;;;4.70;;
6549;SDS011;15142;48.888;9.134;2023-06-22T08:11:22;9.70;;;4.70;;
6549;SDS011;15142;48.888;9.134;2023-06-22T08:13:51;12.27;;;5.23;;
6549;SDS011;15142;48.888;9.134;2023-06-22T08:16:21;9.50;;;4.83;;
6549;SDS011;15142;48.888;9.134;2023-06-22T08:18:50;5.27;;;4.53;;
6549;SDS011;15142;48.888;9.134;2023-06-22T08:21:18;10.30;;;4.63;;
6549;SDS011;15142;48.888;9.134;2023-06-22T08:23:50;11.77;;;4.70;;
6549;SDS011;15142;48.888;9.134;2023-06-22T08:26:18;6.43;;;4.50;;
6549;SDS011;15142;48.888;9.134;2023-06-22T08:28:47;8.77;;;5.00;;
6549;SDS011;15142;48.888;9.134;2023-06-22T08:31:16;8.77;;;5.20;;
6549;SDS011;15142;48.888;9.134;2023-06-22T08:33:44;5.73;;;4.60;;
6549;SDS011;15142;48.888;9.134;2023-06-22T08:36:12;9.43;;;4.97;;
6549;SDS011;15142;48.888;9.134;2023-06-22T08:38:41;7.50;;;5.10;;
6549;SDS011;15142;48.888;9.134;2023-06-22T08:41:13;12.40;;;4.70;;
6549;SDS011;15142;48.888;9.134;2023-06-22T08:43:41;6.53;;;5.20;;
6549;SDS011;15142;48.888;9.134;2023-06-22T08:46:10;6.93;;;4.57;;
6549;SDS011;15142;48.888;9.134;2023-06-22T08:48:38;9.73;;;4.70;;
6549;SDS011;15142;48.888;9.134;2023-06-22T08:51:07;6.23;;;4.53;;
6549;SDS011;15142;48.888;9.134;2023-06-22T08:53:36;7.27;;;4.50;;
6549;SDS011;15142;48.888;9.134;2023-06-22T08:56:05;8.33;;;4.30;;
6549;SDS011;15142;48.888;9.134;2023-06-22T08:58:36;7.40;;;4.60;;
6549;SDS011;15142;48.888;9.134;2023-06-22T09:01:04;8.53;;;4.27;;
6549;SDS011;15142;48.888;9.134;2023-06-22T09:03:33;10.60;;;4.90;;
6549;SDS011;15142;48.888;9.134;2023-06-22T09:06:03;7.70;;;4.60;;
6549;SDS011;15142;48.888;9.134;2023-06-22T09:08:31;8.97;;;4.80;;
6549;SDS011;15142;48.888;9.134;2023-06-22T09:11:00;7.47;;;4.70;;
6549;SDS011;15142;48.888;9.134;2023-06-22T09:16:01;9.20;;;5.73;;
6549;SDS011;15142;48.888;9.134;2023-06-22T09:18:30;16.90;;;5.23;;
6549;SDS011;15142;48.888;9.134;2023-06-22T09:20:59;14.43;;;5.00;;
6549;SDS011;15142;48.888;9.134;2023-06-22T09:23:27;6.00;;;4.73;;
6549;SDS011;15142;48.888;9.134;2023-06-22T09:25:56;9.13;;;5.27;;
6549;SDS011;15142;48.888;9.134;2023-06-22T09:28:25;7.37;;;4.90;;
6549;SDS011;15142;48.888;9.134;2023-06-22T09:30:54;7.30;;;5.10;;
6549;SDS011;15142;48.888;9.134;2023-06-22T09:33:26;5.87;;;5.10;;
6549;SDS011;15142;48.888;9.134;2023-06-22T09:35:54;8.67;;;5.27;;
6549;SDS011;15142;48.888;9.134;2023-06-22T09:38:23;6.60;;;4.70;;
6549;SDS011;15142;48.888;9.134;2023-06-22T09:40:51;10.33;;;4.40;;
6549;SDS011;15142;48.888;9.134;2023-06-22T09:43:20;10.27;;;4.23;;
6549;SDS011;15142;48.888;9.134;2023-06-22T09:45:49;8.63;;;5.37;;
6549;SDS011;15142;48.888;9.134;2023-06-22T09:48:17;11.07;;;4.83;;
6549;SDS011;15142;48.888;9.134;2023-06-22T09:50:48;9.50;;;4.50;;
6549;SDS011;15142;48.888;9.134;2023-06-22T09:53:17;6.67;;;4.63;;
6549;SDS011;15142;48.888;9.134;2023-06-22T09:55:46;10.50;;;5.83;;
6549;SDS011;15142;48.888;9.134;2023-06-22T09:58:14;15.27;;;5.53;;
6549;SDS011;15142;48.888;9.134;2023-06-22T10:00:43;8.47;;;5.67;;
6549;SDS011;15142;48.888;9.134;2023-06-22T10:03:11;8.10;;;5.90;;
6549;SDS011;15142;48.888;9.134;2023-06-22T10:05:40;8.37;;;4.77;;
6549;SDS011;15142;48.888;9.134;2023-06-22T10:08:11;6.93;;;5.30;;
6549;SDS011;15142;48.888;9.134;2023-06-22T10:10:40;7.90;;;5.30;;
6549;SDS011;15142;48.888;9.134;2023-06-22T10:13:09;13.53;;;5.67;;
6549;SDS011;15142;48.888;9.134;2023-06-22T10:15:38;12.50;;;4.97;;
6549;SDS011;15142;48.888;9.134;2023-06-22T10:18:07;8.47;;;4.40;;
6549;SDS011;15142;48.888;9.134;2023-06-22T10:20:36;9.83;;;5.60;;
6549;SDS011;15142;48.888;9.134;2023-06-22T10:23:04;6.27;;;4.57;;
6549;SDS011;15142;48.888;9.134;2023-06-22T10:25:35;8.87;;;4.50;;
6549;SDS011;15142;48.888;9.134;2023-06-22T10:28:04;13.27;;;5.00;;
6549;SDS011;15142;48.888;9.134;2023-06-22T10:30:32;7.23;;;4.53;;
6549;SDS011;15142;48.888;9.134;2023-06-22T10:33:01;9.63;;;4.83;;
6549;SDS011;15142;48.888;9.134;2023-06-22T10:35:30;10.80;;;5.77;;
6549;SDS011;15142;48.888;9.134;2023-06-22T10:37:58;10.03;;;5.50;;
6549;SDS011;15142;48.888;9.134;2023-06-22T10:40:27;74.47;;;6.07;;
6549;SDS011;15142;48.888;9.134;2023-06-22T10:42:58;7.83;;;4.97;;
6549;SDS011;15142;48.888;9.134;2023-06-22T10:45:27;11.00;;;4.93;;
6549;SDS011;15142;48.888;9.134;2023-06-22T10:47:55;6.50;;;5.20;;
6549;SDS011;15142;48.888;9.134;2023-06-22T10:50:24;9.13;;;5.20;;
6549;SDS011;15142;48.888;9.134;2023-06-22T10:52:53;15.93;;;5.87;;
6549;SDS011;15142;48.888;9.134;2023-06-22T10:55:22;14.53;;;4.90;;
6549;SDS011;15142;48.888;9.134;2023-06-22T10:57:51;7.17;;;3.93;;
6549;SDS011;15142;48.888;9.134;2023-06-22T11:00:22;9.20;;;4.47;;
6549;SDS011;15142;48.888;9.134;2023-06-22T11:02:50;6.30;;;3.90;;
6549;SDS011;15142;48.888;9.134;2023-06-22T11:05:19;10.67;;;4.93;;
6549;SDS011;15142;48.888;9.134;2023-06-22T11:07:47;9.27;;;4.97;;
6549;SDS011;15142;48.888;9.134;2023-06-22T11:10:16;11.77;;;4.63;;
6549;SDS011;15142;48.888;9.134;2023-06-22T11:12:45;5.27;;;4.73;;
6549;SDS011;15142;48.888;9.134;2023-06-22T11:15:13;12.90;;;5.07;;
6549;SDS011;15142;48.888;9.134;2023-06-22T11:17:44;16.80;;;5.50;;
6549;SDS011;15142;48.888;9.134;2023-06-22T11:20:13;10.77;;;4.77;;
6549;SDS011;15142;48.888;9.134;2023-06-22T11:22:42;7.10;;;4.30;;
6549;SDS011;15142;48.888;9.134;2023-06-22T11:25:10;10.17;;;4.63;;
6549;SDS011;15142;48.888;9.134;2023-06-22T11:27:39;9.03;;;5.10;;
6549;SDS011;15142;48.888;9.134;2023-06-22T11:30:08;15.33;;;6.23;;
6549;SDS011;15142;48.888;9.134;2023-06-22T11:32:37;11.13;;;4.87;;
6549;SDS011;15142;48.888;9.134;2023-06-22T11:35:09;14.03;;;5.50;;
6549;SDS011;15142;48.888;9.134;2023-06-22T11:37:37;5.40;;;4.77;;
6549;SDS011;15142;48.888;9.134;2023-06-22T11:40:06;5.97;;;4.37;;
6549;SDS011;15142;48.888;9.134;2023-06-22T11:42:36;11.53;;;5.33;;
6549;SDS011;15142;48.888;9.134;2023-06-22T11:45:05;13.00;;;5.33;;
6549;SDS011;15142;48.888;9.134;2023-06-22T11:47:35;11.30;;;5.60;;
6549;SDS011;15142;48.888;9.134;2023-06-22T11:50:05;7.27;;;4.70;;
6549;SDS011;15142;48.888;9.134;2023-06-22T11:52:37;8.53;;;4.43;;
6549;SDS011;15142;48.888;9.134;2023-06-22T11:55:06;6.90;;;4.90;;
6549;SDS011;15142;48.888;9.134;2023-06-22T11:57:36;6.30;;;4.13;;
6549;SDS011;15142;48.888;9.134;2023-06-22T12:00:06;13.53;;;4.53;;
6549;SDS011;15142;48.888;9.134;2023-06-22T12:02:41;8.73;;;4.63;;
6549;SDS011;15142;48.888;9.134;2023-06-22T12:05:10;12.37;;;5.43;;
6549;SDS011;15142;48.888;9.134;2023-06-22T12:07:42;12.67;;;5.27;;
6549;SDS011;15142;48.888;9.134;2023-06-22T12:10:10;10.00;;;4.70;;
6549;SDS011;15142;48.888;9.134;2023-06-22T12:12:38;14.20;;;4.77;;
6549;SDS011;15142;48.888;9.134;2023-06-22T12:15:08;11.60;;;4.17;;
6549;SDS011;15142;48.888;9.134;2023-06-22T12:17:37;9.50;;;4.03;;
6549;SDS011;15142;48.888;9.134;2023-06-22T12:20:07;9.57;;;5.37;;
6549;SDS011;15142;48.888;9.134;2023-06-22T12:22:36;11.43;;;4.87;;
6549;SDS011;15142;48.888;9.134;2023-06-22T12:25:08;4.63;;;4.03;;
6549;SDS011;15142;48.888;9.134;2023-06-22T12:27:37;8.33;;;4.87;;
6549;SDS011;15142;48.888;9.134;2023-06-22T12:30:06;9.77;;;5.13;;
6549;SDS011;15142;48.888;9.134;2023-06-22T12:32:36;7.37;;;4.37;;
6549;SDS011;15142;48.888;9.134;2023-06-22T12:35:06;6.70;;;4.57;;
6549;SDS011;15142;48.888;9.134;2023-06-22T12:37:39;10.90;;;4.40;;
6549;SDS011;15142;48.888;9.134;2023-06-22T12:40:11;10.30;;;4.50;;
6549;SDS011;15142;48.888;9.134;2023-06-22T12:42:40;12.17;;;5.80;;
6549;SDS011;15142;48.888;9.134;2023-06-22T12:45:09;5.63;;;4.40;;
6549;SDS011;15142;48.888;9.134;2023-06-22T12:47:38;9.27;;;4.37;;
6549;SDS011;15142;48.888;9.134;2023-06-22T12:50:07;14.80;;;4.90;;
6549;SDS011;15142;48.888;9.134;2023-06-22T12:52:36;15.40;;;6.10;;
6549;SDS011;15142;48.888;9.134;2023-06-22T12:55:07;10.27;;;5.10;;
6549;SDS011;15142;48.888;9.134;2023-06-22T12:57:38;7.93;;;4.53;;
6549;SDS011;15142;48.888;9.134;2023-06-22T13:00:07;13.00;;;5.30;;
6549;SDS011;15142;48.888;9.134;2023-06-22T13:02:37;8.00;;;4.80;;
6549;SDS011;15142;48.888;9.134;2023-06-22T13:05:06;10.70;;;5.40;;
6549;SDS011;15142;48.888;9.134;2023-06-22T13:07:35;10.70;;;4.73;;
6549;SDS011;15142;48.888;9.134;2023-06-22T13:10:04;20.43;;;4.70;;
6549;SDS011;15142;48.888;9.134;2023-06-22T13:12:33;13.30;;;4.90;;
6549;SDS011;15142;48.888;9.134;2023-06-22T13:15:05;11.23;;;5.10;;
6549;SDS011;15142;48.888;9.134;2023-06-22T13:17:34;8.53;;;5.10;;
6549;SDS011;15142;48.888;9.134;2023-06-22T13:20:04;14.43;;;5.00;;
6549;SDS011;15142;48.888;9.134;2023-06-22T13:22:34;9.03;;;5.20;;
6549;SDS011;15142;48.888;9.134;2023-06-22T13:25:05;13.63;;;6.80;;
6549;SDS011;15142;48.888;9.134;2023-06-22T13:27:37;13.47;;;5.60;;
6549;SDS011;15142;48.888;9.134;2023-06-22T13:30:09;13.47;;;5.23;;
6549;SDS011;15142;48.888;9.134;2023-06-22T13:32:38;9.40;;;4.63;;
6549;SDS011;15142;48.888;9.134;2023-06-22T13:35:07;9.37;;;4.87;;
6549;SDS011;15142;48.888;9.134;2023-06-22T13:37:36;10.57;;;5.00;;
6549;SDS011;15142;48.888;9.134;2023-06-22T13:40:05;7.53;;;4.43;;
6549;SDS011;15142;48.888;9.134;2023-06-22T13:42:35;7.57;;;4.30;;
6549;SDS011;15142;48.888;9.134;2023-06-22T13:45:04;14.77;;;5.53;;
6549;SDS011;15142;48.888;9.134;2023-06-22T13:47:36;14.67;;;4.90;;
6549;SDS011;15142;48.888;9.134;2023-06-22T13:50:05;11.50;;;5.23;;
6549;SDS011;15142;48.888;9.134;2023-06-22T13:52:35;10.90;;;5.50;;
6549;SDS011;15142;48.888;9.134;2023-06-22T13:55:04;7.70;;;5.00;;
6549;SDS011;15142;48.888;9.134;2023-06-22T13:57:35;10.07;;;4.63;;
6549;SDS011;15142;48.888;9.134;2023-06-22T14:00:04;7.73;;;4.83;;
6549;SDS011;15142;48.888;9.134;2023-06-22T14:02:42;18.17;;;4.90;;
6549;SDS011;15142;48.888;9.134;2023-06-22T14:05:11;13.33;;;5.97;;
6549;SDS011;15142;48.888;9.134;2023-06-22T14:07:39;22.33;;;4.50;;
6549;SDS011;15142;48.888;9.134;2023-06-22T14:10:08;21.83;;;6.27;;
6549;SDS011;15142;48.888;9.134;2023-06-22T14:12:37;14.80;;;5.50;;
6549;SDS011;15142;48.888;9.134;2023-06-22T14:15:06;9.10;;;5.50;;
6549;SDS011;15142;48.888;9.134;2023-06-22T14:17:35;12.40;;;5.60;;
6549;SDS011;15142;48.888;9.134;2023-06-22T14:20:06;14.87;;;5.60;;
6549;SDS011;15142;48.888;9.134;2023-06-22T14:22:36;10.17;;;5.17;;
6549;SDS011;15142;48.888;9.134;2023-06-22T14:25:05;9.70;;;5.57;;
6549;SDS011;15142;48.888;9.134;2023-06-22T14:27:35;13.50;;;5.90;;
6549;SDS011;15142;48.888;9.134;2023-06-22T14:30:04;18.13;;;5.07;;
6549;SDS011;15142;48.888;9.134;2023-06-22T14:32:33;9.57;;;5.53;;
6549;SDS011;15142;48.888;9.134;2023-06-22T14:35:02;8.00;;;4.93;;
6549;SDS011;15142;48.888;9.134;2023-06-22T14:37:34;17.50;;;6.30;;
6549;SDS011;15142;48.888;9.134;2023-06-22T14:40:03;8.60;;;5.13;;
6549;SDS011;15142;48.888;9.134;2023-06-22T14:42:32;12.00;;;4.50;;
6549;SDS011;15142;48.888;9.134;2023-06-22T14:45:00;17.13;;;4.70;;
6549;SDS011;15142;48.888;9.134;2023-06-22T14:47:29;12.77;;;5.10;;
6549;SDS011;15142;48.888;9.134;2023-06-22T14:49:57;13.30;;;4.20;;
6549;SDS011;15142;48.888;9.134;2023-06-22T14:52:26;7.27;;;4.93;;
6549;SDS011;15142;48.888;9.134;2023-06-22T14:54:57;4.77;;;3.17;;
6549;SDS011;15142;48.888;9.134;2023-06-22T14:57:26;9.87;;;3.10;;
6549;SDS011;15142;48.888;9.134;2023-06-22T14:59:54;8.60;;;3.00;;
6549;SDS011;15142;48.888;9.134;2023-06-22T15:02:23;6.53;;;2.80;;
6549;SDS011;15142;48.888;9.134;2023-06-22T15:04:52;14.80;;;3.33;;
6549;SDS011;15142;48.888;9.134;2023-06-22T15:07:21;8.80;;;3.60;;
6549;SDS011;15142;48.888;9.134;2023-06-22T15:09:49;7.60;;;3.20;;